Time;durP1;ratioP1;P1;durP2;ratioP2;P2;SDS_P1;SDS_P2;PMS_P1;PMS_P2;Temp;Humidity;BMP_temperature;BMP_pressure;BME280_temperature;BME280_humidity;BME280_pressure;Samples;Min_cycle;Max_cycle;Signal;HPM_P1;HPM_P2
2022/04/23 00:01:16;;;;;;;3.08;1.70;;;;;;;16.38;74.58;99010.16;5072245;28;20261;-85
2022/04/23 00:03:43;;;;;;;12.55;2.40;;;;;;;16.33;74.35;98994.59;5073475;28;20734;-84
2022/04/23 00:06:10;;;;;;;2.15;1.90;;;;;;;16.58;73.70;99044.56;5077685;28;20210;-90
2022/04/23 00:08:36;;;;;;;5.07;3.05;;;;;;;16.59;74.38;99053.25;5074014;28;20191;-88
2022/04/23 00:11:04;;;;;;;2.35;1.85;;;;;;;16.56;74.40;99032.41;5074152;28;20205;-81
2022/04/23 00:13:31;;;;;;;5.03;2.20;;;;;;;16.56;74.04;99043.72;5019966;28;20207;-87
2022/04/23 00:15:58;;;;;;;9.07;2.22;;;;;;;16.46;73.64;99026.53;5071013;28;20651;-81
2022/04/23 00:18:25;;;;;;;1.70;1.60;;;;;;;16.56;72.52;99042.88;5020315;28;20199;-81
2022/04/23 00:20:51;;;;;;;2.75;2.10;;;;;;;16.50;73.18;99017.69;5072083;28;20202;-83
2022/04/23 00:23:18;;;;;;;2.72;2.10;;;;;;;16.53;72.34;99033.31;5037159;28;20686;-83
2022/04/23 00:25:50;;;;;;;1.75;1.65;;;;;;;16.44;72.68;99014.38;5040145;28;20210;-84
2022/04/23 00:28:19;;;;;;;3.78;2.20;;;;;;;16.60;72.15;99034.91;5074227;28;20218;-86
2022/04/23 00:30:45;;;;;;;1.77;1.70;;;;;;;16.58;71.80;99030.63;5077304;28;20198;-87
2022/04/23 00:33:12;;;;;;;2.90;2.22;;;;;;;16.42;71.38;98997.84;5072794;28;20226;-86
2022/04/23 00:35:39;;;;;;;7.30;2.20;;;;;;;16.48;71.64;99019.47;5072470;28;20233;-86
2022/04/23 00:38:08;;;;;;;2.13;1.80;;;;;;;16.54;71.14;99032.44;5071168;28;20194;-84
2022/04/23 00:40:35;;;;;;;2.70;2.45;;;;;;;16.55;71.68;99030.69;5071899;28;20229;-85
2022/04/23 00:43:05;;;;;;;2.47;1.88;;;;;;;16.52;71.53;99033.34;5072175;28;20229;-87
2022/04/23 00:45:34;;;;;;;1.67;1.30;;;;;;;16.54;71.64;99028.94;5072049;28;20207;-86
2022/04/23 00:48:01;;;;;;;3.33;2.38;;;;;;;16.49;71.27;99026.44;5072539;28;20202;-87
2022/04/23 00:50:27;;;;;;;2.92;2.03;;;;;;;16.48;71.78;99034.34;5072109;28;20597;-86
2022/04/23 00:52:59;;;;;;;2.03;1.92;;;;;;;16.44;71.55;99035.31;5072118;28;20198;-86
2022/04/23 00:55:26;;;;;;;1.60;1.50;;;;;;;16.44;72.01;99027.47;5021131;28;20602;-84
2022/04/23 00:57:53;;;;;;;2.67;1.98;;;;;;;16.42;71.09;99030.09;5071830;28;20214;-83
2022/04/23 01:00:21;;;;;;;1.77;1.45;;;;;;;16.38;70.94;99033.69;5071659;28;20233;-81
2022/04/23 01:02:49;;;;;;;1.77;1.67;;;;;;;16.38;71.21;99042.41;5072214;28;20217;-85
2022/04/23 01:05:16;;;;;;;6.10;1.70;;;;;;;16.35;70.37;99042.50;5072166;28;20260;-84
2022/04/23 01:07:44;;;;;;;3.03;2.28;;;;;;;16.42;69.17;99034.47;5071778;28;20202;-82
2022/04/23 01:10:12;;;;;;;2.92;2.10;;;;;;;16.27;69.42;99015.66;5071131;28;20194;-83
2022/04/23 01:12:39;;;;;;;4.10;1.80;;;;;;;16.36;69.71;99049.44;5071879;28;20282;-84
2022/04/23 01:15:08;;;;;;;8.02;1.40;;;;;;;15.89;70.00;98973.91;5071073;28;20203;-83
2022/04/23 01:17:35;;;;;;;3.67;2.17;;;;;;;16.32;69.75;99044.31;5071223;28;20202;-84
2022/04/23 01:20:08;;;;;;;3.00;2.00;;;;;;;16.36;68.56;99036.38;5070942;28;20219;-83
2022/04/23 01:22:37;;;;;;;2.40;2.05;;;;;;;16.39;68.82;99051.13;5071560;28;20234;-84
2022/04/23 01:25:05;;;;;;;2.78;2.40;;;;;;;16.27;69.19;99047.03;5071354;28;20195;-84
2022/04/23 01:27:34;;;;;;;1.90;1.80;;;;;;;16.25;69.25;99046.25;5071550;28;20290;-84
2022/04/23 01:30:01;;;;;;;9.05;2.42;;;;;;;15.85;68.98;98985.34;5023555;28;20207;-83
2022/04/23 01:32:28;;;;;;;6.25;1.55;;;;;;;16.26;68.59;99054.94;5071231;28;20214;-84
2022/04/23 01:34:55;;;;;;;5.57;2.17;;;;;;;16.28;68.48;99055.75;5071644;28;20706;-86
2022/04/23 01:37:23;;;;;;;7.97;2.00;;;;;;;16.32;68.60;99052.19;5071468;28;20211;-83
2022/04/23 01:39:50;;;;;;;5.10;1.50;;;;;;;16.26;68.36;99050.59;5071690;28;20233;-84
2022/04/23 01:42:19;;;;;;;1.70;1.60;;;;;;;16.22;68.97;99059.41;5071404;28;20203;-87
2022/04/23 01:44:46;;;;;;;2.95;2.03;;;;;;;16.21;67.59;99065.50;5071408;28;20241;-84
2022/04/23 01:47:13;;;;;;;1.83;1.58;;;;;;;16.21;67.81;99055.06;5071576;28;20187;-85
2022/04/23 01:49:40;;;;;;;3.40;2.10;;;;;;;16.14;67.01;99111.00;5073488;28;20253;-84
2022/04/23 01:52:07;;;;;;;4.82;2.38;;;;;;;15.69;70.35;99109.44;5074408;28;20256;-81
2022/04/23 01:54:36;;;;;;;3.42;2.17;;;;;;;15.74;73.99;99134.56;5075039;28;20595;-85
2022/04/23 01:57:03;;;;;;;3.15;2.15;;;;;;;15.41;70.48;99075.13;5074844;28;20207;-84
2022/04/23 01:59:30;;;;;;;2.25;2.15;;;;;;;15.77;71.64;99149.31;5022963;28;20226;-85
2022/04/23 02:01:57;;;;;;;3.13;1.90;;;;;;;15.49;75.38;99161.22;5075040;28;20305;-84
2022/04/23 02:04:24;;;;;;;1.98;1.88;;;;;;;15.46;76.12;99156.00;5075175;28;20202;-84
2022/04/23 02:06:51;;;;;;;6.40;2.35;;;;;;;15.28;75.13;99129.38;5075863;28;20206;-85
2022/04/23 02:09:18;;;;;;;3.80;2.50;;;;;;;15.31;75.71;99139.75;5075800;28;20199;-86
2022/04/23 02:11:46;;;;;;;1.90;1.67;;;;;;;15.34;75.90;99139.69;5075293;28;20290;-85
2022/04/23 02:14:13;;;;;;;2.47;2.28;;;;;;;15.23;77.88;99120.75;5075295;28;20260;-87
2022/04/23 02:16:40;;;;;;;4.20;2.33;;;;;;;15.07;80.19;99115.84;5075299;28;20194;-86
2022/04/23 02:19:07;;;;;;;2.67;2.00;;;;;;;15.06;80.13;99109.75;5076001;28;20198;-83
2022/04/23 02:21:34;;;;;;;5.57;2.20;;;;;;;15.17;78.29;99110.44;5076123;28;20183;-88
2022/04/23 02:24:01;;;;;;;2.30;2.10;;;;;;;15.17;77.10;99073.88;5076142;28;20207;-87
2022/04/23 02:26:28;;;;;;;2.80;2.03;;;;;;;15.47;75.09;99075.00;5080203;28;20751;-86
2022/04/23 02:28:56;;;;;;;7.88;1.70;;;;;;;15.86;74.05;99113.41;5076788;28;20198;-86
2022/04/23 02:31:23;;;;;;;1.98;1.70;;;;;;;15.98;75.31;99141.00;5079966;28;20203;-88
2022/04/23 02:33:50;;;;;;;4.10;2.80;;;;;;;16.04;79.52;99143.50;5075055;28;20206;-87
2022/04/23 02:36:17;;;;;;;2.53;2.42;;;;;;;15.77;81.86;99084.81;5074489;28;20568;-86
2022/04/23 02:38:44;;;;;;;3.45;2.25;;;;;;;16.13;85.73;99145.91;5074889;28;20220;-86
2022/04/23 02:41:11;;;;;;;2.80;2.58;;;;;;;16.12;86.87;99149.44;5074683;28;20218;-85
2022/04/23 02:43:40;;;;;;;5.50;2.92;;;;;;;15.99;89.98;99145.34;5073778;28;20221;-85
2022/04/23 02:46:08;;;;;;;5.00;2.65;;;;;;;15.93;94.75;99153.31;5073241;28;20202;-85
2022/04/23 02:48:36;;;;;;;3.78;3.25;;;;;;;15.78;100.00;99140.56;5073452;28;20198;-83
2022/04/23 02:51:03;;;;;;;5.57;3.35;;;;;;;15.67;100.00;99137.31;5073046;28;20278;-84
2022/04/23 02:53:30;;;;;;;9.45;3.78;;;;;;;15.61;100.00;99155.75;5072838;28;20206;-85
2022/04/23 02:55:57;;;;;;;8.25;3.42;;;;;;;15.43;100.00;99133.44;5073663;28;20203;-86
2022/04/23 02:58:26;;;;;;;2.80;2.60;;;;;;;15.56;100.00;99160.19;5073963;28;20218;-89
2022/04/23 03:00:54;;;;;;;7.95;3.67;;;;;;;15.37;100.00;99150.06;5073625;28;20249;-87
2022/04/23 03:03:22;;;;;;;2.20;2.00;;;;;;;15.51;100.00;99167.28;5073925;28;20198;-87
2022/04/23 03:05:51;;;;;;;7.18;4.22;;;;;;;15.47;100.00;99165.59;5075002;28;20202;-84
2022/04/23 03:08:19;;;;;;;10.68;3.95;;;;;;;15.34;100.00;99160.56;5075747;28;20221;-85
2022/04/23 03:10:45;;;;;;;6.70;4.18;;;;;;;15.17;100.00;99149.59;5074529;28;20202;-85
2022/04/23 03:13:13;;;;;;;6.95;4.43;;;;;;;15.20;100.00;99146.91;5074598;28;20206;-86
2022/04/23 03:15:41;;;;;;;5.55;4.63;;;;;;;15.20;100.00;99161.72;5074518;28;20827;-83
2022/04/23 03:18:09;;;;;;;6.82;4.00;;;;;;;14.93;100.00;99141.34;5075887;28;20201;-86
2022/04/23 03:20:37;;;;;;;9.55;4.70;;;;;;;15.02;100.00;99162.91;5076147;28;20709;-84
2022/04/23 03:23:04;;;;;;;5.45;4.32;;;;;;;15.20;100.00;99165.19;5072868;28;20199;-83
2022/04/23 03:25:31;;;;;;;6.18;3.97;;;;;;;15.10;100.00;99166.25;5053124;28;20204;-83
2022/04/23 03:27:59;;;;;;;9.65;5.30;;;;;;;15.03;100.00;99169.00;5053822;28;20203;-84
2022/04/23 03:30:26;;;;;;;6.65;4.82;;;;;;;15.03;100.00;99180.31;5057039;28;20200;-84
2022/04/23 03:32:53;;;;;;;6.50;4.78;;;;;;;14.85;100.00;99150.16;5073859;28;20206;-84
2022/04/23 03:35:20;;;;;;;13.45;5.63;;;;;;;14.87;100.00;99186.69;5021113;28;20222;-87
2022/04/23 03:37:48;;;;;;;11.25;5.15;;;;;;;14.97;100.00;99180.44;5073045;28;20195;-84
2022/04/23 03:40:16;;;;;;;6.78;4.32;;;;;;;14.91;100.00;99188.34;5073286;28;20223;-81
2022/04/23 03:42:48;;;;;;;10.18;5.40;;;;;;;15.09;100.00;99187.19;5072241;28;20207;-83
2022/04/23 03:45:16;;;;;;;14.60;7.70;;;;;;;14.86;100.00;99171.91;5057448;28;20195;-85
2022/04/23 03:47:46;;;;;;;7.78;5.80;;;;;;;14.86;100.00;99166.69;5072770;28;20297;-83
2022/04/23 03:50:14;;;;;;;6.50;5.03;;;;;;;14.63;100.00;99119.22;5072784;28;21782;-85
2022/04/23 03:52:41;;;;;;;8.60;6.28;;;;;;;15.31;100.00;99178.94;5073545;28;20201;-85
2022/04/23 03:55:11;;;;;;;9.85;5.88;;;;;;;15.43;100.00;99192.66;5072444;28;20267;-83
2022/04/23 03:57:46;;;;;;;7.60;5.78;;;;;;;15.54;100.00;99193.34;5020497;28;20673;-82
2022/04/23 04:00:14;;;;;;;6.88;5.35;;;;;;;15.78;100.00;99193.72;5071452;28;20318;-83
2022/04/23 04:02:42;;;;;;;11.93;5.75;;;;;;;16.08;100.00;99187.00;5053020;28;20203;-82
2022/04/23 04:05:10;;;;;;;8.35;5.15;;;;;;;16.10;100.00;99200.88;5071455;28;20290;-84
2022/04/23 04:07:42;;;;;;;13.18;5.70;;;;;;;16.48;100.00;99193.97;5072033;28;20282;-85
2022/04/23 04:10:11;;;;;;;6.93;5.03;;;;;;;16.53;100.00;99186.84;5071699;28;20241;-83
2022/04/23 04:12:38;;;;;;;8.88;5.47;;;;;;;16.97;100.00;99204.13;5070674;28;20203;-82
2022/04/23 04:15:07;;;;;;;7.25;5.47;;;;;;;17.02;100.00;99190.03;5072291;28;20219;-87
2022/04/23 04:17:35;;;;;;;10.80;5.70;;;;;;;17.22;100.00;99198.25;5072417;28;20273;-82
2022/04/23 04:20:02;;;;;;;5.97;4.82;;;;;;;17.23;100.00;99213.03;5053719;28;20230;-76
2022/04/23 04:22:30;;;;;;;8.55;5.75;;;;;;;17.23;100.00;99189.47;5070225;28;20210;-76
2022/04/23 04:24:57;;;;;;;6.28;4.72;;;;;;;17.00;100.00;99207.53;5071273;28;20222;-78
2022/04/23 04:27:25;;;;;;;8.88;6.07;;;;;;;17.19;100.00;99213.19;5025714;28;20580;-78
2022/04/23 04:29:52;;;;;;;11.88;6.47;;;;;;;17.72;100.00;99219.66;5064992;28;20641;-77
2022/04/23 04:32:19;;;;;;;8.95;6.55;;;;;;;18.28;98.67;99221.50;5071021;28;20763;-78
2022/04/23 04:34:46;;;;;;;10.80;7.20;;;;;;;18.65;93.55;99189.75;5070824;28;20230;-76
2022/04/23 04:37:13;;;;;;;16.90;6.75;;;;;;;19.02;92.26;99220.94;5070712;28;20685;-76
2022/04/23 04:39:41;;;;;;;18.08;12.35;;;;;;;19.23;88.37;99191.28;5070423;28;20250;-75
2022/04/23 04:42:09;;;;;;;14.95;8.32;;;;;;;19.72;85.71;99203.63;5070940;28;20643;-75
2022/04/23 04:44:38;;;;;;;10.25;6.45;;;;;;;19.91;83.72;99224.84;5034816;28;20199;-75
2022/04/23 04:47:06;;;;;;;8.95;5.90;;;;;;;20.15;78.70;99228.38;5071045;28;20195;-76
2022/04/23 04:49:33;;;;;;;9.25;5.68;;;;;;;20.59;77.07;99237.22;5071256;28;20202;-74
2022/04/23 04:52:00;;;;;;;9.63;5.82;;;;;;;20.75;72.55;99204.09;5070564;28;20210;-75
2022/04/23 04:54:26;;;;;;;14.52;6.13;;;;;;;19.87;76.69;99238.19;5019031;28;20217;-76
2022/04/23 04:56:56;;;;;;;8.93;5.90;;;;;;;19.42;82.01;99203.84;5070557;28;20194;-73
2022/04/23 04:59:23;;;;;;;7.20;5.00;;;;;;;18.61;86.98;99250.28;5070523;28;20199;-76
2022/04/23 05:01:52;;;;;;;7.85;5.32;;;;;;;18.69;88.93;99241.25;5070173;28;20640;-76
2022/04/23 05:04:19;;;;;;;10.95;5.55;;;;;;;18.78;90.96;99226.97;5071083;28;20195;-76
2022/04/23 05:06:47;;;;;;;8.00;5.75;;;;;;;19.37;85.23;99250.44;5071499;28;20659;-81
2022/04/23 05:09:14;;;;;;;8.98;5.43;;;;;;;20.13;82.67;99261.75;5071395;28;20674;-78
2022/04/23 05:11:41;;;;;;;8.88;4.70;;;;;;;20.31;77.27;99203.19;5071647;28;20272;-77
2022/04/23 05:14:07;;;;;;;11.75;5.03;;;;;;;20.68;75.28;99255.31;5071418;28;20194;-76
2022/04/23 05:16:34;;;;;;;5.18;4.47;;;;;;;20.21;76.57;99242.16;5070587;28;20199;-75
2022/04/23 05:19:03;;;;;;;9.02;5.50;;;;;;;20.17;78.10;99243.19;5069921;28;20786;-75
2022/04/23 05:21:29;;;;;;;10.57;5.68;;;;;;;20.17;80.45;99253.69;5069781;28;20654;-73
2022/04/23 05:23:56;;;;;;;8.98;4.60;;;;;;;19.59;79.85;99218.09;5071325;28;20198;-75
2022/04/23 05:26:23;;;;;;;10.45;5.15;;;;;;;19.57;78.58;99216.47;5071244;28;20206;-76
2022/04/23 05:28:50;;;;;;;15.60;5.72;;;;;;;19.84;78.09;99249.66;5072608;28;20210;-79
2022/04/23 05:31:16;;;;;;;8.90;5.70;;;;;;;19.61;83.43;99260.16;5073598;28;20209;-76
2022/04/23 05:33:43;;;;;;;8.13;5.47;;;;;;;20.03;79.53;99260.38;5073029;28;20222;-77
2022/04/23 05:36:11;;;;;;;9.05;4.80;;;;;;;19.84;76.75;99244.41;5063451;28;20207;-77
2022/04/23 05:38:38;;;;;;;6.43;4.95;;;;;;;19.70;82.62;99244.03;5074105;28;20206;-78
2022/04/23 05:41:05;;;;;;;6.88;5.10;;;;;;;19.41;87.44;99244.16;5074512;28;20222;-75
2022/04/23 05:43:32;;;;;;;12.10;5.95;;;;;;;18.80;98.10;99244.41;5070655;28;20269;-78
2022/04/23 05:46:00;;;;;;;12.18;6.38;;;;;;;18.42;100.00;99246.47;5066571;28;20210;-76
2022/04/23 05:48:27;;;;;;;12.00;6.30;;;;;;;18.23;100.00;99261.88;5063719;28;20203;-77
2022/04/23 05:50:53;;;;;;;12.68;6.68;;;;;;;18.08;100.00;99242.22;5074468;28;20613;-79
2022/04/23 05:53:22;;;;;;;8.93;6.25;;;;;;;17.74;100.00;99228.31;5067362;28;20218;-78
2022/04/23 05:55:49;;;;;;;11.88;6.75;;;;;;;17.87;100.00;99266.44;5054305;28;20575;-78
2022/04/23 05:58:16;;;;;;;8.20;5.63;;;;;;;18.10;100.00;99261.38;5029434;28;20202;-76
2022/04/23 06:00:43;;;;;;;19.15;11.43;;;;;;;18.12;100.00;99264.81;5073226;28;20297;-73
2022/04/23 06:03:11;;;;;;;13.10;7.35;;;;;;;17.82;100.00;99278.81;5073699;28;20206;-79
2022/04/23 06:05:37;;;;;;;12.95;7.10;;;;;;;17.80;100.00;99283.22;5073362;28;20226;-76
2022/04/23 06:08:05;;;;;;;17.48;7.45;;;;;;;17.62;100.00;99252.25;5073337;28;20679;-76
2022/04/23 06:10:33;;;;;;;15.35;6.93;;;;;;;17.88;100.00;99289.13;5056418;28;20230;-77
2022/04/23 06:13:00;;;;;;;9.95;6.28;;;;;;;17.87;100.00;99266.44;5073242;28;20202;-73
2022/04/23 06:15:26;;;;;;;15.77;7.40;;;;;;;18.05;100.00;99292.13;5072601;28;20203;-79
2022/04/23 06:17:53;;;;;;;9.85;6.65;;;;;;;17.89;100.00;99296.09;5073191;28;20199;-81
2022/04/23 06:20:20;;;;;;;8.88;6.13;;;;;;;17.76;100.00;99299.94;5021403;28;20632;-81
2022/04/23 06:22:47;;;;;;;12.05;6.93;;;;;;;18.08;100.00;99301.69;5073691;28;20202;-78
2022/04/23 06:25:13;;;;;;;11.65;6.97;;;;;;;17.93;100.00;99312.59;5073251;28;20607;-79
2022/04/23 06:27:42;;;;;;;6.43;5.30;;;;;;;18.02;100.00;99314.97;5072903;28;20217;-80
2022/04/23 06:30:09;;;;;;;8.15;5.93;;;;;;;17.51;100.00;99273.50;5073655;28;20194;-78
2022/04/23 06:32:39;;;;;;;11.50;6.18;;;;;;;17.68;100.00;99328.13;5036853;28;20218;-79
2022/04/23 06:35:07;;;;;;;20.02;6.88;;;;;;;17.88;100.00;99328.44;5022470;28;20317;-88
2022/04/23 06:37:38;;;;;;;11.07;6.70;;;;;;;18.10;100.00;99329.59;5073150;28;20634;-80
2022/04/23 06:40:06;;;;;;;31.63;17.23;;;;;;;18.15;100.00;99330.34;5073343;28;20284;-77
2022/04/23 06:42:33;;;;;;;49.15;21.73;;;;;;;17.93;100.00;99321.34;5037999;28;20229;-82
2022/04/23 06:45:01;;;;;;;9.23;7.10;;;;;;;17.81;100.00;99342.63;5072880;28;20206;-81
2022/04/23 06:47:28;;;;;;;9.70;6.72;;;;;;;17.67;100.00;99313.28;5073008;28;20213;-80
2022/04/23 06:49:58;;;;;;;9.98;6.07;;;;;;;17.87;100.00;99355.59;5072962;28;20673;-79
2022/04/23 06:52:25;;;;;;;6.00;4.00;;;;;;;17.61;100.00;99358.03;5073021;28;20191;-79
2022/04/23 06:54:52;;;;;;;14.40;7.53;;;;;;;17.98;100.00;99358.78;5072954;28;20199;-80
2022/04/23 06:57:19;;;;;;;13.13;6.80;;;;;;;18.14;100.00;99354.84;5072711;28;20202;-77
2022/04/23 06:59:46;;;;;;;9.55;5.95;;;;;;;18.04;100.00;99358.63;5072768;28;20199;-81
2022/04/23 07:02:14;;;;;;;10.00;5.85;;;;;;;18.17;100.00;99343.41;5073390;28;20222;-79
2022/04/23 07:04:41;;;;;;;6.50;4.20;;;;;;;18.01;100.00;99327.25;5070839;28;20214;-83
2022/04/23 07:07:08;;;;;;;6.68;4.82;;;;;;;18.05;100.00;99381.31;5073082;28;20651;-82
2022/04/23 07:09:35;;;;;;;10.15;5.40;;;;;;;17.72;100.00;99341.13;5021332;28;20285;-77
2022/04/23 07:12:02;;;;;;;8.80;4.65;;;;;;;17.92;100.00;99379.06;5073173;28;20217;-78
2022/04/23 07:14:28;;;;;;;8.10;5.25;;;;;;;17.99;100.00;99381.50;5072613;28;20195;-80
2022/04/23 07:16:56;;;;;;;5.80;3.65;;;;;;;17.85;100.00;99344.28;5073249;28;20203;-79
2022/04/23 07:19:25;;;;;;;5.15;4.18;;;;;;;18.61;100.00;99381.56;5083766;28;20209;-79
2022/04/23 07:21:52;;;;;;;10.00;5.03;;;;;;;18.91;100.00;99378.03;5080016;28;20233;-78
2022/04/23 07:24:19;;;;;;;7.68;4.78;;;;;;;19.19;100.00;99368.38;5069853;28;20191;-80
2022/04/23 07:26:46;;;;;;;6.78;3.90;;;;;;;19.00;99.57;99385.66;5021357;28;20694;-80
2022/04/23 07:29:12;;;;;;;6.13;4.57;;;;;;;19.06;99.06;99385.47;5073255;28;20210;-77
2022/04/23 07:31:39;;;;;;;7.18;4.47;;;;;;;19.21;98.84;99366.59;5072544;28;20736;-79
2022/04/23 07:39:37;;;;;;;10.15;5.53;;;;;;;18.97;99.75;99370.00;5071798;28;20296;-80
2022/04/23 07:42:06;;;;;;;13.65;5.35;;;;;;;18.92;100.00;99368.38;5069707;28;20219;-82
2022/04/23 07:44:32;;;;;;;6.05;4.53;;;;;;;18.74;100.00;99393.44;5055653;28;20199;-83
2022/04/23 07:46:59;;;;;;;6.97;5.00;;;;;;;19.01;100.00;99394.41;5065579;28;20215;-80
2022/04/23 07:49:27;;;;;;;9.25;5.70;;;;;;;19.35;100.00;99402.09;5039982;28;20195;-81
2022/04/23 07:51:55;;;;;;;8.90;5.40;;;;;;;19.22;99.72;99344.66;5071637;28;20202;-76
2022/04/23 07:54:22;;;;;;;7.60;5.40;;;;;;;19.58;99.22;99407.53;5067734;28;20194;-78
2022/04/23 07:56:49;;;;;;;14.15;5.70;;;;;;;19.52;97.35;99387.53;5065801;28;20233;-77
2022/04/23 07:59:16;;;;;;;7.75;5.35;;;;;;;19.92;95.32;99392.34;5066637;28;20593;-77
2022/04/23 08:01:43;;;;;;;5.60;4.85;;;;;;;20.52;92.06;99401.66;5071338;28;20230;-80
2022/04/23 08:04:10;;;;;;;7.55;5.78;;;;;;;19.55;96.96;99400.56;5071316;28;20213;-74
2022/04/23 08:06:37;;;;;;;7.18;4.78;;;;;;;19.48;99.81;99390.31;5070834;28;20202;-78
2022/04/23 08:09:05;;;;;;;7.00;3.85;;;;;;;19.25;98.18;99378.75;5067260;28;20198;-76
2022/04/23 08:11:32;;;;;;;5.82;4.43;;;;;;;19.44;97.86;99407.13;5064660;28;20690;-76
2022/04/23 08:13:58;;;;;;;4.78;3.35;;;;;;;19.12;99.16;99393.16;5064540;28;20216;-77
2022/04/23 08:16:28;;;;;;;6.25;4.53;;;;;;;19.14;100.00;99393.97;5070928;28;20202;-75
2022/04/23 08:18:55;;;;;;;6.05;4.05;;;;;;;19.49;98.42;99413.06;5070564;28;20671;-74
2022/04/23 08:21:22;;;;;;;5.05;3.38;;;;;;;19.25;97.08;99388.38;5070296;28;20312;-74
2022/04/23 08:23:49;;;;;;;8.07;3.42;;;;;;;19.86;100.00;99403.09;5069467;28;20290;-70
2022/04/23 08:26:17;;;;;;;9.98;3.50;;;;;;;19.99;96.27;99416.66;5070453;28;20224;-71
2022/04/23 08:31:29;;;;;;;7.38;3.70;;;;;;;20.60;91.41;99410.16;5070436;28;20599;-75
2022/04/23 08:34:01;;;;;;;7.50;3.78;;;;;;;20.98;85.18;99393.75;5034895;28;20221;-74
2022/04/23 08:36:30;;;;;;;6.10;3.53;;;;;;;20.94;92.24;99415.88;5073142;28;20214;-74
2022/04/23 08:38:58;;;;;;;7.35;3.13;;;;;;;20.85;86.67;99416.25;5075560;28;20209;-75
2022/04/23 08:41:30;;;;;;;11.73;3.55;;;;;;;20.49;85.68;99407.03;5070054;28;20230;-75
2022/04/23 08:43:58;;;;;;;8.15;3.70;;;;;;;20.63;93.60;99420.56;5070244;28;20194;-73
2022/04/23 08:46:26;;;;;;;3.38;2.78;;;;;;;20.38;84.84;99414.47;5070271;28;20701;-73
2022/04/23 08:49:03;;;;;;;6.22;2.90;;;;;;;20.23;89.20;99398.25;5088737;28;20198;-72
2022/04/23 08:51:34;;;;;;;2.80;2.20;;;;;;;20.43;82.64;99415.16;5090137;28;20198;-71
2022/04/23 08:54:06;;;;;;;7.30;3.03;;;;;;;20.85;80.06;99420.66;5074594;28;20199;-73
2022/04/23 08:56:35;;;;;;;4.53;2.50;;;;;;;20.63;79.75;99420.56;5075598;28;20214;-73
2022/04/23 08:59:02;;;;;;;2.33;2.13;;;;;;;20.58;77.67;99398.81;5075779;28;20202;-73
2022/04/23 09:01:31;;;;;;;3.05;2.53;;;;;;;20.25;78.51;99380.66;5073258;28;20222;-73
2022/04/23 09:03:59;;;;;;;2.53;2.03;;;;;;;20.30;78.01;99374.41;5088086;28;20275;-72
2022/04/23 09:06:33;;;;;;;3.88;2.38;;;;;;;20.10;78.88;99396.97;5089271;28;20202;-72
2022/04/23 09:09:08;;;;;;;5.65;2.97;;;;;;;20.14;81.04;99400.38;5089807;28;20190;-74
2022/04/23 09:11:36;;;;;;;3.92;2.10;;;;;;;20.05;78.71;99404.16;5089877;28;20206;-74
2022/04/23 09:14:04;;;;;;;5.28;2.42;;;;;;;19.91;79.46;99340.63;5089865;28;20612;-75
2022/04/23 09:24:51;;;;;;;3.90;2.10;;;;;;;20.47;75.67;99406.25;5007463;28;20715;-74
2022/04/23 09:27:21;;;;;;;3.22;2.00;;;;;;;20.72;73.55;99404.44;5007388;28;20256;-75
2022/04/23 09:29:59;;;;;;;1.35;1.35;;;;;;;20.80;69.47;99407.63;5004098;28;20642;-74
2022/04/23 09:32:27;;;;;;;3.40;1.70;;;;;;;20.51;66.42;99356.03;5007434;28;21070;-73
2022/04/23 09:35:08;;;;;;;2.53;1.60;;;;;;;20.87;66.00;99393.31;5004648;28;20303;-74
2022/04/23 09:40:21;;;;;;;2.20;1.50;;;;;;;20.83;65.86;99398.78;5007100;28;20617;-76
2022/04/23 09:43:02;;;;;;;2.47;1.75;;;;;;;20.79;66.26;99405.94;5006988;28;20312;-75
2022/04/23 09:45:30;;;;;;;4.97;1.50;;;;;;;21.15;66.95;99409.81;5017681;28;20211;-73
2022/04/23 09:47:58;;;;;;;5.95;1.83;;;;;;;21.21;67.06;99399.06;5027201;28;20200;-75
2022/04/23 09:50:25;;;;;;;2.13;1.88;;;;;;;21.18;67.53;99393.91;5014144;28;20197;-77
2022/04/23 09:52:53;;;;;;;1.60;1.50;;;;;;;21.02;66.70;99398.00;5006598;28;20688;-77
2022/04/23 09:55:26;;;;;;;2.10;1.67;;;;;;;21.11;68.01;99400.34;5013280;28;20340;-78
2022/04/23 09:57:54;;;;;;;6.45;2.17;;;;;;;21.32;68.53;99405.69;5017616;28;20665;-75
2022/04/23 10:00:23;;;;;;;1.95;1.40;;;;;;;21.11;66.89;99391.56;5069037;28;20202;-74
2022/04/23 10:02:56;;;;;;;5.10;1.70;;;;;;;21.01;67.18;99406.81;5069239;28;20645;-74
2022/04/23 10:05:23;;;;;;;1.55;1.42;;;;;;;20.61;70.28;99382.91;5069451;28;20206;-75
2022/04/23 10:07:55;;;;;;;5.22;2.35;;;;;;;21.04;72.12;99387.41;5069102;28;20577;-75
2022/04/23 10:10:26;;;;;;;2.20;1.38;;;;;;;21.11;71.66;99407.38;5070856;28;20199;-74
2022/04/23 10:12:56;;;;;;;1.70;1.60;;;;;;;21.22;69.50;99387.56;5072224;28;20195;-73
2022/04/23 10:15:25;;;;;;;10.98;1.50;;;;;;;21.15;66.14;99367.63;5072600;28;20662;-72
2022/04/23 10:17:54;;;;;;;2.58;1.30;;;;;;;21.25;68.35;99383.97;5072155;28;20789;-72
2022/04/23 10:20:22;;;;;;;1.48;1.33;;;;;;;20.96;67.60;99408.78;5072788;28;20730;-74
2022/04/23 10:22:58;;;;;;;1.42;1.33;;;;;;;21.22;65.09;99384.94;5054004;28;20223;-73
2022/04/23 10:25:41;;;;;;;1.45;1.38;;;;;;;21.12;63.81;99370.41;5063824;28;20203;-74
2022/04/23 10:28:09;;;;;;;3.22;1.60;;;;;;;21.77;64.05;99391.47;5063147;28;20205;-72
2022/04/23 10:30:37;;;;;;;1.30;1.20;;;;;;;21.24;64.40;99383.09;5072440;28;20199;-73
2022/04/23 10:33:26;;;;;;;2.85;1.30;;;;;;;21.22;62.60;99387.56;5020576;28;20195;-76
2022/04/23 10:36:08;;;;;;;4.80;1.50;;;;;;;21.46;60.42;99391.03;5071931;28;20280;-76
2022/04/23 10:38:40;;;;;;;2.67;1.10;;;;;;;21.33;60.23;99371.34;5072272;28;20206;-75
2022/04/23 10:41:08;;;;;;;3.60;1.20;;;;;;;21.22;58.16;99398.13;5072674;28;20207;-79
2022/04/23 10:43:35;;;;;;;1.15;1.10;;;;;;;21.20;58.83;99380.66;5072090;28;20222;-72
2022/04/23 10:46:05;;;;;;;1.75;1.02;;;;;;;21.30;58.37;99403.09;5071902;28;20210;-72
2022/04/23 10:48:33;;;;;;;0.98;0.98;;;;;;;21.32;59.01;99408.31;5072348;28;20214;-72
2022/04/23 10:51:05;;;;;;;1.27;0.90;;;;;;;21.19;58.97;99406.16;5072429;28;20226;-76
2022/04/23 10:53:51;;;;;;;1.00;1.00;;;;;;;21.29;58.89;99408.44;5067952;28;20203;-78
2022/04/23 10:56:19;;;;;;;4.38;1.48;;;;;;;20.96;60.19;99347.31;5070297;28;20229;-79
2022/04/23 10:58:46;;;;;;;1.83;1.00;;;;;;;21.01;59.74;99375.19;5070739;28;20208;-76
2022/04/23 11:01:22;;;;;;;0.80;0.80;;;;;;;21.00;61.29;99405.13;5070906;28;20209;-76
2022/04/23 11:04:00;;;;;;;1.48;1.23;;;;;;;21.13;62.64;99406.41;5070632;28;20226;-75
2022/04/23 11:12:30;;;;;;;1.45;1.17;;;;;;;21.21;63.73;99393.78;5052469;28;20202;-83
2022/04/23 11:14:57;;;;;;;2.28;1.08;;;;;;;21.12;63.91;99406.44;5025416;28;20287;-77
2022/04/23 11:17:46;;;;;;;1.52;1.15;;;;;;;21.01;65.77;99400.72;5063894;28;20194;-75
2022/04/23 11:20:14;;;;;;;4.22;1.85;;;;;;;20.84;66.62;99382.88;5067874;28;20195;-76
2022/04/23 11:22:41;;;;;;;1.27;1.20;;;;;;;20.26;66.71;99306.00;5051520;28;20242;-76
2022/04/23 11:25:09;;;;;;;9.80;1.55;;;;;;;21.06;66.44;99393.47;5051944;28;20207;-76
2022/04/23 11:27:37;;;;;;;2.88;1.20;;;;;;;20.89;69.04;99409.06;5016732;28;20203;-76
2022/04/23 11:30:06;;;;;;;1.38;1.27;;;;;;;21.04;71.45;99396.19;5068781;28;20195;-76
2022/04/23 11:32:36;;;;;;;2.85;1.60;;;;;;;21.09;69.85;99399.50;5020275;28;20211;-75
2022/04/23 11:35:05;;;;;;;1.88;1.40;;;;;;;20.91;69.65;99405.47;5071634;28;20321;-75
2022/04/23 11:37:32;;;;;;;2.15;1.20;;;;;;;21.11;69.03;99404.75;5070576;28;20214;-76
2022/04/23 11:40:07;;;;;;;1.95;1.20;;;;;;;21.31;67.23;99396.91;5071267;28;20210;-77
2022/04/23 11:42:41;;;;;;;1.33;1.00;;;;;;;21.20;65.18;99414.91;5065890;28;20242;-78
2022/04/23 11:45:10;;;;;;;4.68;1.58;;;;;;;21.31;65.21;99399.53;5065064;28;21830;-79
2022/04/23 11:47:38;;;;;;;2.35;1.20;;;;;;;20.99;65.37;99408.66;5062203;28;20202;-74
2022/04/23 11:50:12;;;;;;;1.55;1.35;;;;;;;20.98;65.47;99374.44;5060721;28;20202;-77
2022/04/23 11:52:39;;;;;;;4.55;1.85;;;;;;;21.28;65.30;99399.66;5061517;28;20205;-81
2022/04/23 11:55:09;;;;;;;2.88;1.45;;;;;;;21.13;64.47;99393.22;5066641;28;20221;-79
2022/04/23 11:57:36;;;;;;;1.05;1.05;;;;;;;20.88;64.92;99360.78;5064201;28;20203;-80
2022/04/23 12:00:05;;;;;;;2.47;1.60;;;;;;;21.10;64.36;99368.72;5075543;28;20221;-79